createdAt,value
2018-10-19T00:00:04.109Z,9.07
2018-10-19T00:05:04.162Z,8.87
2018-10-19T00:10:04.120Z,8.59
2018-10-19T00:15:04.235Z,8.28
2018-10-19T00:20:04.126Z,7.98
2018-10-19T00:25:04.113Z,7.68
2018-10-19T00:30:04.135Z,7.31
2018-10-19T00:35:04.142Z,6.94
2018-10-19T00:40:04.124Z,6.63
2018-10-19T00:45:04.168Z,6.22
2018-10-19T00:50:04.131Z,5.8
2018-10-19T00:55:04.134Z,5.48
2018-10-19T01:00:04.166Z,5.33
2018-10-19T01:05:04.206Z,5.28
2018-10-19T01:10:04.156Z,5.33
2018-10-19T01:15:04.225Z,5.39
2018-10-19T01:20:04.147Z,5.27
2018-10-19T01:25:04.156Z,5.07
2018-10-19T01:30:04.172Z,4.9
2018-10-19T01:35:04.187Z,4.79
2018-10-19T01:40:04.173Z,4.84
2018-10-19T01:45:04.189Z,5.07
2018-10-19T01:50:04.185Z,5.36
2018-10-19T01:55:04.181Z,5.41
2018-10-19T02:00:04.198Z,5.39
2018-10-19T02:05:04.190Z,5.18
2018-10-19T02:10:04.172Z,4.93
2018-10-19T02:15:04.260Z,4.62
2018-10-19T02:20:04.195Z,4.36
2018-10-19T02:25:04.187Z,4.21
2018-10-19T02:30:04.184Z,4.08
2018-10-19T02:35:04.285Z,3.82
2018-10-19T02:40:04.205Z,3.62
2018-10-19T02:45:04.204Z,3.46
2018-10-19T02:50:04.214Z,3.55
2018-10-19T02:55:04.203Z,3.36
2018-10-19T03:00:04.202Z,3.39
2018-10-19T03:05:04.266Z,3.33
2018-10-19T03:10:04.206Z,3.33
2018-10-19T03:15:04.286Z,3.38
2018-10-19T03:20:04.225Z,3.4
2018-10-19T03:25:04.212Z,3.58
2018-10-19T03:30:04.215Z,3.82
2018-10-19T03:35:04.252Z,4.02
2018-10-19T03:40:04.221Z,4.27
2018-10-19T03:45:04.264Z,4.13
2018-10-19T03:50:04.243Z,3.87
2018-10-19T03:55:04.234Z,3.71
2018-10-19T04:00:04.234Z,3.68
2018-10-19T04:05:04.291Z,3.59
2018-10-19T04:10:04.250Z,3.4
2018-10-19T04:15:04.304Z,3.21
2018-10-19T04:20:04.308Z,3.23
2018-10-19T04:25:04.252Z,3.1
2018-10-19T04:30:04.249Z,3.05
2018-10-19T04:35:04.323Z,3
2018-10-19T04:40:04.255Z,2.86
2018-10-19T04:45:04.288Z,2.74
2018-10-19T04:50:04.267Z,2.78
2018-10-19T04:55:04.260Z,2.74
2018-10-19T05:00:04.275Z,2.68
2018-10-19T05:05:04.320Z,2.52
2018-10-19T05:10:04.269Z,2.53
2018-10-19T05:15:04.275Z,2.68
2018-10-19T05:20:04.328Z,2.8
2018-10-19T05:25:04.278Z,2.76
2018-10-19T05:30:04.299Z,2.86
2018-10-19T05:35:04.309Z,2.8
2018-10-19T05:40:04.286Z,2.69
2018-10-19T05:45:04.286Z,2.79
2018-10-19T05:50:04.329Z,2.69
2018-10-19T05:55:04.305Z,2.43
2018-10-19T06:00:04.309Z,2.2
2018-10-19T06:05:04.380Z,1.97
2018-10-19T06:10:04.307Z,1.91
2018-10-19T06:15:04.312Z,1.85
2018-10-19T06:20:04.327Z,1.92
2018-10-19T06:25:04.308Z,1.76
2018-10-19T06:30:04.316Z,1.87
2018-10-19T06:35:04.334Z,1.68
2018-10-19T06:40:04.340Z,1.63
2018-10-19T06:45:04.340Z,1.9
2018-10-19T06:50:04.427Z,2.34
2018-10-19T06:55:04.327Z,2.49
2018-10-19T07:00:04.347Z,2.58
2018-10-19T07:05:04.416Z,2.99
2018-10-19T07:10:04.338Z,3.14
2018-10-19T07:15:04.338Z,3.38
2018-10-19T07:20:04.367Z,3.54
2018-10-19T07:25:04.348Z,3.87
2018-10-19T07:30:04.357Z,3.85
2018-10-19T07:35:04.418Z,4.04
2018-10-19T07:40:04.352Z,4.38
2018-10-19T07:45:04.368Z,4.47
2018-10-19T07:50:04.422Z,4.71
2018-10-19T07:55:04.357Z,4.84
2018-10-19T08:00:04.367Z,5.08
2018-10-19T08:05:04.506Z,5.45
2018-10-19T08:10:04.376Z,5.5
2018-10-19T08:15:04.368Z,5.57
2018-10-19T08:20:04.428Z,5.75
2018-10-19T08:25:04.389Z,5.92
2018-10-19T08:30:04.380Z,6.11
2018-10-19T08:35:04.414Z,6.23
2018-10-19T08:40:04.382Z,6.57
2018-10-19T08:45:04.440Z,6.7
2018-10-19T08:50:04.387Z,6.78
2018-10-19T08:55:03.454Z,6.91
2018-10-19T09:00:03.451Z,6.99
2018-10-19T09:05:03.438Z,7.03
2018-10-19T09:10:03.395Z,7.54
2018-10-19T09:15:03.481Z,7.82
2018-10-19T09:20:03.420Z,7.75
2018-10-19T09:25:03.406Z,8.28
2018-10-19T09:30:03.420Z,8.59
2018-10-19T09:35:03.458Z,9.08
2018-10-19T09:40:03.470Z,9.05
2018-10-19T09:45:03.467Z,9.55
2018-10-19T09:50:03.434Z,9.5
2018-10-19T09:55:03.471Z,9.47
2018-10-19T10:00:03.427Z,9.75
2018-10-19T10:05:03.464Z,9.8
2018-10-19T10:10:03.435Z,10.13
2018-10-19T10:15:03.611Z,10.68
2018-10-19T10:20:03.453Z,11.6
2018-10-19T10:25:03.487Z,12.9
2018-10-19T10:30:03.444Z,14.08
2018-10-19T10:35:03.468Z,14.49
2018-10-19T10:40:03.492Z,16.18
2018-10-19T10:45:03.469Z,16.39
2018-10-19T10:50:03.460Z,15.47
2018-10-19T10:55:03.549Z,15.7
2018-10-19T11:00:03.464Z,15.02
2018-10-19T11:05:03.479Z,14.87
2018-10-19T11:10:03.520Z,13.8
2018-10-19T11:15:03.468Z,13.91
2018-10-19T11:20:03.478Z,14
2018-10-19T11:25:03.512Z,14.44
2018-10-19T11:30:03.487Z,15.45
2018-10-19T11:35:03.500Z,15.3
2018-10-19T11:40:03.575Z,15.55
2018-10-19T11:45:03.486Z,15.27
2018-10-19T11:50:03.508Z,15.66
2018-10-19T11:55:03.552Z,16.65
2018-10-19T12:00:03.504Z,16.84
2018-10-19T12:05:03.501Z,16.7
2018-10-19T12:10:03.592Z,17.23
2018-10-19T12:15:03.521Z,17.01
2018-10-19T12:20:03.507Z,17.23
2018-10-19T12:25:03.555Z,16.58
2018-10-19T12:30:03.550Z,15.81
2018-10-19T12:35:03.527Z,14.89
2018-10-19T12:40:03.515Z,14.82
2018-10-19T12:45:03.606Z,15.46
2018-10-19T12:50:03.526Z,15.01
2018-10-19T12:55:03.601Z,14.83
2018-10-19T13:00:03.532Z,14.39
2018-10-19T13:05:03.557Z,14.17
2018-10-19T13:10:03.529Z,14.36
2018-10-19T13:15:03.554Z,14.56
2018-10-19T13:20:03.541Z,15.68
2018-10-19T13:25:03.545Z,17.33
2018-10-19T13:30:03.550Z,17.89
2018-10-19T13:35:03.551Z,17.24
2018-10-19T13:40:03.543Z,17.55
2018-10-19T13:45:03.594Z,17.6
2018-10-19T13:50:03.562Z,19.55
2018-10-19T13:55:03.567Z,20.34
2018-10-19T14:00:03.567Z,21.66
2018-10-19T14:05:03.627Z,21.85
2018-10-19T14:10:03.559Z,20.57
2018-10-19T14:15:03.621Z,20.21
2018-10-19T14:20:03.581Z,20.35
2018-10-19T14:25:03.567Z,19.36
2018-10-19T14:30:03.593Z,18.86
2018-10-19T14:35:03.637Z,18.99
2018-10-19T14:40:03.591Z,18.08
2018-10-19T14:45:03.601Z,16.55
2018-10-19T14:50:03.713Z,15.17
2018-10-19T14:55:03.596Z,13.92
2018-10-19T15:00:03.604Z,13.29
2018-10-19T15:05:03.655Z,12.72
2018-10-19T15:10:03.691Z,12.34
2018-10-19T15:15:03.651Z,12.11
2018-10-19T15:20:03.606Z,11.94
2018-10-19T15:25:03.598Z,11.67
2018-10-19T15:30:03.667Z,11.44
2018-10-19T15:35:03.609Z,11.13
2018-10-19T15:40:03.620Z,10.74
2018-10-19T15:45:03.689Z,10.44
2018-10-19T15:50:03.617Z,10.14
2018-10-19T15:55:03.620Z,9.81
2018-10-19T16:00:03.654Z,9.62
2018-10-19T16:05:03.623Z,9.38
2018-10-19T16:10:03.626Z,9.18
2018-10-19T16:15:03.738Z,8.88
2018-10-19T16:20:03.640Z,8.49
2018-10-19T16:25:03.631Z,8.08
2018-10-19T16:30:03.715Z,7.75
2018-10-19T16:35:03.641Z,7.61
2018-10-19T16:40:03.644Z,7.32
2018-10-19T16:45:03.731Z,6.9
2018-10-19T16:50:03.644Z,6.28
2018-10-19T16:55:03.655Z,5.98
2018-10-19T17:00:03.741Z,5.56
2018-10-19T17:05:03.722Z,5.22
2018-10-19T17:10:03.656Z,5.08
2018-10-19T17:15:03.724Z,4.98
2018-10-19T17:20:03.661Z,4.97
2018-10-19T17:25:03.674Z,4.96
2018-10-19T17:30:03.753Z,4.93
2018-10-19T17:35:03.741Z,4.94
2018-10-19T17:40:03.682Z,4.87
2018-10-19T17:45:03.720Z,4.81
2018-10-19T17:50:03.681Z,4.72
2018-10-19T17:55:03.682Z,4.69
2018-10-19T18:00:03.717Z,4.73
2018-10-19T18:05:03.728Z,4.68
2018-10-19T18:10:03.689Z,4.66
2018-10-19T18:15:03.722Z,4.67
2018-10-19T18:20:03.697Z,4.74
2018-10-19T18:25:03.701Z,4.74
2018-10-19T18:30:03.716Z,4.75
2018-10-19T18:35:03.873Z,4.72
2018-10-19T18:40:03.707Z,4.67
2018-10-19T18:45:03.713Z,4.68
2018-10-19T18:50:03.763Z,4.69
2018-10-19T18:55:03.796Z,4.68
2018-10-19T19:00:03.732Z,4.73
2018-10-19T19:05:03.738Z,4.78
2018-10-19T19:10:03.719Z,4.92
2018-10-19T19:15:03.751Z,4.98
2018-10-19T19:20:03.792Z,5.06
2018-10-19T19:25:03.727Z,5.06
2018-10-19T19:30:03.743Z,4.96
2018-10-19T19:35:03.752Z,4.87
2018-10-19T19:40:03.730Z,4.96
2018-10-19T19:45:03.753Z,5
2018-10-19T19:50:03.848Z,5.01
2018-10-19T19:55:03.752Z,5.16
2018-10-19T20:00:03.753Z,5.19
2018-10-19T20:05:03.820Z,5.17
2018-10-19T20:10:03.752Z,5.11
2018-10-19T20:15:03.770Z,5
2018-10-19T20:20:03.802Z,4.91
2018-10-19T20:25:03.769Z,4.74
2018-10-19T20:30:03.780Z,4.49
2018-10-19T20:35:03.824Z,4.27
2018-10-19T20:40:03.764Z,4.02
2018-10-19T20:45:03.782Z,3.91
2018-10-19T20:50:03.855Z,4.33
2018-10-19T20:55:03.776Z,4.06
2018-10-19T21:00:03.789Z,3.88
2018-10-19T21:05:03.855Z,3.71
2018-10-19T21:10:03.790Z,3.47
2018-10-19T21:15:03.790Z,3.29
2018-10-19T21:20:03.833Z,3.15
2018-10-19T21:25:03.799Z,3.11
2018-10-19T21:30:03.949Z,2.91
2018-10-19T21:35:03.846Z,2.71
2018-10-19T21:40:03.798Z,2.49
2018-10-19T21:45:03.819Z,2.38
2018-10-19T21:50:03.841Z,2.32
2018-10-19T21:55:03.817Z,2.22
2018-10-19T22:00:03.815Z,2.21
2018-10-19T22:05:03.950Z,2.27
2018-10-19T22:10:03.812Z,2.24
2018-10-19T22:15:03.843Z,2.4
2018-10-19T22:20:03.824Z,2.19
2018-10-19T22:25:03.893Z,1.93
2018-10-19T22:30:03.851Z,1.93
2018-10-19T22:35:03.863Z,1.68
2018-10-19T22:40:03.841Z,1.57
2018-10-19T22:45:03.842Z,1.6
2018-10-19T22:50:03.836Z,1.56
2018-10-19T22:55:03.866Z,1.41
2018-10-19T23:00:03.846Z,1.4
2018-10-19T23:05:03.868Z,1.45
2018-10-19T23:10:03.844Z,1.57
2018-10-19T23:15:03.868Z,1.71
2018-10-19T23:20:03.851Z,1.99
2018-10-19T23:25:03.902Z,2.27
2018-10-19T23:30:03.883Z,2.54
2018-10-19T23:35:03.867Z,2.46
2018-10-19T23:40:03.866Z,2.29
2018-10-19T23:45:03.874Z,1.99
2018-10-19T23:50:03.877Z,1.72
2018-10-19T23:55:03.965Z,1.52
